sensor_id;sensor_type;location;lat;lon;timestamp;P1;durP1;ratioP1;P2;durP2;ratioP2
49614;SDS011;35517;45.272;9.984;2023-03-01T00:01:59;39.47;;;18.83;;
49614;SDS011;35517;45.272;9.984;2023-03-01T00:04:26;29.85;;;17.05;;
49614;SDS011;35517;45.272;9.984;2023-03-01T00:06:53;28.85;;;17.60;;
49614;SDS011;35517;45.272;9.984;2023-03-01T00:09:20;35.65;;;19.10;;
49614;SDS011;35517;45.272;9.984;2023-03-01T00:11:46;34.97;;;20.73;;
49614;SDS011;35517;45.272;9.984;2023-03-01T00:14:13;34.13;;;20.58;;
49614;SDS011;35517;45.272;9.984;2023-03-01T00:16:42;34.20;;;19.55;;
49614;SDS011;35517;45.272;9.984;2023-03-01T00:19:12;35.58;;;17.85;;
49614;SDS011;35517;45.272;9.984;2023-03-01T00:21:38;34.17;;;19.75;;
49614;SDS011;35517;45.272;9.984;2023-03-01T00:24:05;28.17;;;17.55;;
49614;SDS011;35517;45.272;9.984;2023-03-01T00:26:32;30.73;;;18.65;;
49614;SDS011;35517;45.272;9.984;2023-03-01T00:28:59;33.05;;;18.77;;
49614;SDS011;35517;45.272;9.984;2023-03-01T00:31:26;35.42;;;18.85;;
49614;SDS011;35517;45.272;9.984;2023-03-01T00:33:55;31.95;;;18.05;;
49614;SDS011;35517;45.272;9.984;2023-03-01T00:36:23;29.55;;;17.67;;
49614;SDS011;35517;45.272;9.984;2023-03-01T00:38:50;35.88;;;18.63;;
49614;SDS011;35517;45.272;9.984;2023-03-01T00:41:17;35.05;;;18.35;;
49614;SDS011;35517;45.272;9.984;2023-03-01T00:43:44;38.35;;;18.35;;
49614;SDS011;35517;45.272;9.984;2023-03-01T00:46:12;28.20;;;17.50;;
49614;SDS011;35517;45.272;9.984;2023-03-01T00:48:38;30.33;;;17.95;;
49614;SDS011;35517;45.272;9.984;2023-03-01T00:51:09;33.85;;;19.35;;
49614;SDS011;35517;45.272;9.984;2023-03-01T00:53:36;29.15;;;16.48;;
49614;SDS011;35517;45.272;9.984;2023-03-01T00:56:03;31.85;;;17.83;;
49614;SDS011;35517;45.272;9.984;2023-03-01T00:58:30;29.80;;;18.17;;
49614;SDS011;35517;45.272;9.984;2023-03-01T01:00:57;34.78;;;18.92;;
49614;SDS011;35517;45.272;9.984;2023-03-01T01:03:23;32.92;;;19.08;;
49614;SDS011;35517;45.272;9.984;2023-03-01T01:05:53;29.20;;;17.48;;
49614;SDS011;35517;45.272;9.984;2023-03-01T01:08:20;30.52;;;18.20;;
49614;SDS011;35517;45.272;9.984;2023-03-01T01:10:47;32.38;;;18.23;;
49614;SDS011;35517;45.272;9.984;2023-03-01T01:13:14;35.25;;;19.48;;
49614;SDS011;35517;45.272;9.984;2023-03-01T01:15:40;29.77;;;18.40;;
49614;SDS011;35517;45.272;9.984;2023-03-01T01:18:07;30.52;;;17.80;;
49614;SDS011;35517;45.272;9.984;2023-03-01T01:20:34;31.15;;;18.48;;
49614;SDS011;35517;45.272;9.984;2023-03-01T01:23:01;33.22;;;19.40;;
49614;SDS011;35517;45.272;9.984;2023-03-01T01:25:29;31.02;;;17.08;;
49614;SDS011;35517;45.272;9.984;2023-03-01T01:27:55;31.48;;;17.10;;
49614;SDS011;35517;45.272;9.984;2023-03-01T01:30:22;30.33;;;18.52;;
49614;SDS011;35517;45.272;9.984;2023-03-01T01:32:48;25.50;;;15.65;;
49614;SDS011;35517;45.272;9.984;2023-03-01T01:35:16;31.13;;;16.17;;
49614;SDS011;35517;45.272;9.984;2023-03-01T01:37:43;26.33;;;16.95;;
49614;SDS011;35517;45.272;9.984;2023-03-01T01:40:09;33.00;;;18.35;;
49614;SDS011;35517;45.272;9.984;2023-03-01T01:42:36;38.45;;;20.85;;
49614;SDS011;35517;45.272;9.984;2023-03-01T01:47:49;30.80;;;18.65;;
49614;SDS011;35517;45.272;9.984;2023-03-01T01:50:16;30.10;;;18.17;;
49614;SDS011;35517;45.272;9.984;2023-03-01T01:52:44;35.75;;;18.63;;
49614;SDS011;35517;45.272;9.984;2023-03-01T01:55:14;35.08;;;17.20;;
49614;SDS011;35517;45.272;9.984;2023-03-01T01:57:44;33.03;;;17.25;;
49614;SDS011;35517;45.272;9.984;2023-03-01T02:00:16;28.30;;;17.85;;
49614;SDS011;35517;45.272;9.984;2023-03-01T02:02:43;28.65;;;16.77;;
49614;SDS011;35517;45.272;9.984;2023-03-01T02:05:14;29.55;;;16.75;;
49614;SDS011;35517;45.272;9.984;2023-03-01T02:07:41;26.33;;;16.20;;
49614;SDS011;35517;45.272;9.984;2023-03-01T02:10:08;30.83;;;16.33;;
49614;SDS011;35517;45.272;9.984;2023-03-01T02:12:35;28.48;;;16.52;;
49614;SDS011;35517;45.272;9.984;2023-03-01T02:15:02;28.25;;;18.48;;
49614;SDS011;35517;45.272;9.984;2023-03-01T02:17:28;29.33;;;17.05;;
49614;SDS011;35517;45.272;9.984;2023-03-01T02:22:35;29.33;;;16.98;;
49614;SDS011;35517;45.272;9.984;2023-03-01T02:27:48;29.23;;;16.92;;
49614;SDS011;35517;45.272;9.984;2023-03-01T02:30:16;32.80;;;18.85;;
49614;SDS011;35517;45.272;9.984;2023-03-01T02:32:43;31.13;;;18.45;;
49614;SDS011;35517;45.272;9.984;2023-03-01T02:35:10;32.88;;;18.77;;
49614;SDS011;35517;45.272;9.984;2023-03-01T02:37:38;34.63;;;18.08;;
49614;SDS011;35517;45.272;9.984;2023-03-01T02:40:06;27.25;;;17.67;;
49614;SDS011;35517;45.272;9.984;2023-03-01T02:42:40;39.70;;;18.88;;
49614;SDS011;35517;45.272;9.984;2023-03-01T02:45:09;32.13;;;19.48;;
49614;SDS011;35517;45.272;9.984;2023-03-01T02:47:36;32.70;;;19.50;;
49614;SDS011;35517;45.272;9.984;2023-03-01T02:50:08;31.75;;;18.92;;
49614;SDS011;35517;45.272;9.984;2023-03-01T02:52:42;30.77;;;18.10;;
49614;SDS011;35517;45.272;9.984;2023-03-01T02:55:12;35.55;;;18.45;;
49614;SDS011;35517;45.272;9.984;2023-03-01T02:57:41;32.00;;;17.52;;
49614;SDS011;35517;45.272;9.984;2023-03-01T03:00:12;34.10;;;20.02;;
49614;SDS011;35517;45.272;9.984;2023-03-01T03:02:46;36.65;;;19.33;;
49614;SDS011;35517;45.272;9.984;2023-03-01T03:05:24;36.22;;;20.25;;
49614;SDS011;35517;45.272;9.984;2023-03-01T03:07:54;38.67;;;20.35;;
49614;SDS011;35517;45.272;9.984;2023-03-01T03:10:26;34.38;;;18.95;;
49614;SDS011;35517;45.272;9.984;2023-03-01T03:12:53;34.05;;;19.15;;
49614;SDS011;35517;45.272;9.984;2023-03-01T03:15:21;36.65;;;18.55;;
49614;SDS011;35517;45.272;9.984;2023-03-01T03:17:48;31.15;;;18.42;;
49614;SDS011;35517;45.272;9.984;2023-03-01T03:20:15;44.60;;;20.48;;
49614;SDS011;35517;45.272;9.984;2023-03-01T03:22:44;31.90;;;18.27;;
49614;SDS011;35517;45.272;9.984;2023-03-01T03:25:11;33.20;;;19.08;;
49614;SDS011;35517;45.272;9.984;2023-03-01T03:27:39;30.38;;;18.88;;
49614;SDS011;35517;45.272;9.984;2023-03-01T03:30:08;29.23;;;18.15;;
49614;SDS011;35517;45.272;9.984;2023-03-01T03:32:35;31.67;;;18.52;;
49614;SDS011;35517;45.272;9.984;2023-03-01T03:35:03;37.15;;;20.90;;
49614;SDS011;35517;45.272;9.984;2023-03-01T03:37:38;39.35;;;20.23;;
49614;SDS011;35517;45.272;9.984;2023-03-01T03:40:24;37.05;;;20.23;;
49614;SDS011;35517;45.272;9.984;2023-03-01T03:42:51;32.15;;;18.63;;
49614;SDS011;35517;45.272;9.984;2023-03-01T03:45:17;35.10;;;20.25;;
49614;SDS011;35517;45.272;9.984;2023-03-01T03:47:44;35.28;;;19.17;;
49614;SDS011;35517;45.272;9.984;2023-03-01T03:50:11;38.63;;;19.42;;
49614;SDS011;35517;45.272;9.984;2023-03-01T03:52:39;40.75;;;21.70;;
49614;SDS011;35517;45.272;9.984;2023-03-01T03:55:06;35.38;;;19.02;;
49614;SDS011;35517;45.272;9.984;2023-03-01T03:57:37;31.33;;;18.75;;
49614;SDS011;35517;45.272;9.984;2023-03-01T04:00:04;39.70;;;19.38;;
49614;SDS011;35517;45.272;9.984;2023-03-01T04:02:43;28.98;;;18.02;;
49614;SDS011;35517;45.272;9.984;2023-03-01T04:05:12;39.30;;;18.60;;
49614;SDS011;35517;45.272;9.984;2023-03-01T04:07:40;36.28;;;18.73;;
49614;SDS011;35517;45.272;9.984;2023-03-01T04:10:08;32.88;;;17.83;;
49614;SDS011;35517;45.272;9.984;2023-03-01T04:12:36;50.17;;;20.10;;
49614;SDS011;35517;45.272;9.984;2023-03-01T04:15:03;37.47;;;19.95;;
49614;SDS011;35517;45.272;9.984;2023-03-01T04:17:42;47.60;;;21.70;;
49614;SDS011;35517;45.272;9.984;2023-03-01T04:20:14;36.05;;;21.10;;
49614;SDS011;35517;45.272;9.984;2023-03-01T04:22:56;39.20;;;20.33;;
49614;SDS011;35517;45.272;9.984;2023-03-01T04:25:23;39.47;;;19.33;;
49614;SDS011;35517;45.272;9.984;2023-03-01T04:27:51;39.80;;;21.77;;
49614;SDS011;35517;45.272;9.984;2023-03-01T04:30:18;37.60;;;22.42;;
49614;SDS011;35517;45.272;9.984;2023-03-01T04:32:44;35.25;;;20.23;;
49614;SDS011;35517;45.272;9.984;2023-03-01T04:35:11;32.30;;;19.35;;
49614;SDS011;35517;45.272;9.984;2023-03-01T04:37:37;39.33;;;21.88;;
49614;SDS011;35517;45.272;9.984;2023-03-01T04:40:04;36.42;;;21.00;;
49614;SDS011;35517;45.272;9.984;2023-03-01T04:42:38;37.08;;;20.23;;
49614;SDS011;35517;45.272;9.984;2023-03-01T04:45:05;35.35;;;19.92;;
49614;SDS011;35517;45.272;9.984;2023-03-01T04:47:39;34.90;;;20.30;;
49614;SDS011;35517;45.272;9.984;2023-03-01T04:50:06;33.15;;;20.52;;
49614;SDS011;35517;45.272;9.984;2023-03-01T04:52:33;37.33;;;22.05;;
49614;SDS011;35517;45.272;9.984;2023-03-01T04:55:00;40.83;;;21.17;;
49614;SDS011;35517;45.272;9.984;2023-03-01T04:57:27;45.92;;;23.95;;
49614;SDS011;35517;45.272;9.984;2023-03-01T04:59:53;38.42;;;22.45;;
49614;SDS011;35517;45.272;9.984;2023-03-01T05:02:20;42.42;;;22.98;;
49614;SDS011;35517;45.272;9.984;2023-03-01T05:04:47;41.95;;;22.15;;
49614;SDS011;35517;45.272;9.984;2023-03-01T05:07:13;36.40;;;20.95;;
49614;SDS011;35517;45.272;9.984;2023-03-01T05:09:48;36.33;;;20.73;;
49614;SDS011;35517;45.272;9.984;2023-03-01T05:12:14;34.03;;;21.05;;
49614;SDS011;35517;45.272;9.984;2023-03-01T05:14:41;37.95;;;20.77;;
49614;SDS011;35517;45.272;9.984;2023-03-01T05:17:08;38.90;;;21.88;;
49614;SDS011;35517;45.272;9.984;2023-03-01T05:19:34;43.30;;;23.58;;
49614;SDS011;35517;45.272;9.984;2023-03-01T05:22:01;35.53;;;22.58;;
49614;SDS011;35517;45.272;9.984;2023-03-01T05:24:32;35.85;;;20.30;;
49614;SDS011;35517;45.272;9.984;2023-03-01T05:27:00;35.33;;;19.45;;
49614;SDS011;35517;45.272;9.984;2023-03-01T05:29:27;35.05;;;20.85;;
49614;SDS011;35517;45.272;9.984;2023-03-01T05:31:58;34.10;;;19.40;;
49614;SDS011;35517;45.272;9.984;2023-03-01T05:34:25;36.83;;;20.33;;
49614;SDS011;35517;45.272;9.984;2023-03-01T05:36:52;38.45;;;21.27;;
49614;SDS011;35517;45.272;9.984;2023-03-01T05:39:19;36.42;;;20.50;;
49614;SDS011;35517;45.272;9.984;2023-03-01T05:41:48;35.33;;;21.77;;
49614;SDS011;35517;45.272;9.984;2023-03-01T05:44:14;40.40;;;21.85;;
49614;SDS011;35517;45.272;9.984;2023-03-01T05:46:41;40.80;;;23.42;;
49614;SDS011;35517;45.272;9.984;2023-03-01T05:49:08;39.45;;;21.73;;
49614;SDS011;35517;45.272;9.984;2023-03-01T05:51:34;41.15;;;21.80;;
49614;SDS011;35517;45.272;9.984;2023-03-01T05:54:01;41.63;;;22.08;;
49614;SDS011;35517;45.272;9.984;2023-03-01T05:56:27;42.58;;;25.50;;
49614;SDS011;35517;45.272;9.984;2023-03-01T05:58:54;44.53;;;22.48;;
49614;SDS011;35517;45.272;9.984;2023-03-01T06:01:21;38.88;;;20.90;;
49614;SDS011;35517;45.272;9.984;2023-03-01T06:03:47;44.78;;;22.15;;
49614;SDS011;35517;45.272;9.984;2023-03-01T06:06:14;39.60;;;20.40;;
49614;SDS011;35517;45.272;9.984;2023-03-01T06:08:40;37.78;;;20.13;;
49614;SDS011;35517;45.272;9.984;2023-03-01T06:11:07;38.95;;;21.23;;
49614;SDS011;35517;45.272;9.984;2023-03-01T06:13:33;36.25;;;20.92;;
49614;SDS011;35517;45.272;9.984;2023-03-01T06:16:00;37.58;;;21.88;;
49614;SDS011;35517;45.272;9.984;2023-03-01T06:18:27;39.08;;;21.63;;
49614;SDS011;35517;45.272;9.984;2023-03-01T06:20:54;40.95;;;23.17;;
49614;SDS011;35517;45.272;9.984;2023-03-01T06:23:25;35.92;;;21.80;;
49614;SDS011;35517;45.272;9.984;2023-03-01T06:25:52;40.00;;;22.25;;
49614;SDS011;35517;45.272;9.984;2023-03-01T06:28:23;38.17;;;21.92;;
49614;SDS011;35517;45.272;9.984;2023-03-01T06:30:50;32.28;;;21.08;;
49614;SDS011;35517;45.272;9.984;2023-03-01T06:33:17;40.63;;;19.35;;
49614;SDS011;35517;45.272;9.984;2023-03-01T06:35:57;37.10;;;21.90;;
49614;SDS011;35517;45.272;9.984;2023-03-01T06:38:24;37.88;;;21.10;;
49614;SDS011;35517;45.272;9.984;2023-03-01T06:40:51;32.33;;;19.42;;
49614;SDS011;35517;45.272;9.984;2023-03-01T06:43:19;45.35;;;23.27;;
49614;SDS011;35517;45.272;9.984;2023-03-01T06:45:46;39.60;;;19.55;;
49614;SDS011;35517;45.272;9.984;2023-03-01T06:48:12;33.55;;;21.75;;
49614;SDS011;35517;45.272;9.984;2023-03-01T06:50:39;36.15;;;20.45;;
49614;SDS011;35517;45.272;9.984;2023-03-01T06:53:06;37.55;;;19.17;;
49614;SDS011;35517;45.272;9.984;2023-03-01T06:55:32;35.85;;;19.92;;
49614;SDS011;35517;45.272;9.984;2023-03-01T06:58:11;35.50;;;19.98;;
49614;SDS011;35517;45.272;9.984;2023-03-01T07:00:38;29.95;;;19.63;;
49614;SDS011;35517;45.272;9.984;2023-03-01T07:03:06;36.35;;;19.50;;
49614;SDS011;35517;45.272;9.984;2023-03-01T07:05:33;36.90;;;18.70;;
49614;SDS011;35517;45.272;9.984;2023-03-01T07:08:00;40.85;;;20.88;;
49614;SDS011;35517;45.272;9.984;2023-03-01T07:10:26;35.20;;;19.98;;
49614;SDS011;35517;45.272;9.984;2023-03-01T07:12:56;29.55;;;18.23;;
49614;SDS011;35517;45.272;9.984;2023-03-01T07:15:24;34.72;;;20.45;;
49614;SDS011;35517;45.272;9.984;2023-03-01T07:17:51;30.13;;;18.50;;
49614;SDS011;35517;45.272;9.984;2023-03-01T07:20:18;30.58;;;18.80;;
49614;SDS011;35517;45.272;9.984;2023-03-01T07:22:48;33.13;;;18.20;;
49614;SDS011;35517;45.272;9.984;2023-03-01T07:25:14;30.40;;;17.83;;
49614;SDS011;35517;45.272;9.984;2023-03-01T07:27:41;31.85;;;18.38;;
49614;SDS011;35517;45.272;9.984;2023-03-01T07:30:24;32.60;;;19.25;;
49614;SDS011;35517;45.272;9.984;2023-03-01T07:32:53;51.42;;;20.08;;
49614;SDS011;35517;45.272;9.984;2023-03-01T07:35:19;28.73;;;17.98;;
49614;SDS011;35517;45.272;9.984;2023-03-01T07:37:46;32.83;;;18.08;;
49614;SDS011;35517;45.272;9.984;2023-03-01T07:40:12;27.38;;;17.17;;
49614;SDS011;35517;45.272;9.984;2023-03-01T07:42:39;32.75;;;19.05;;
49614;SDS011;35517;45.272;9.984;2023-03-01T07:45:06;35.17;;;19.42;;
49614;SDS011;35517;45.272;9.984;2023-03-01T07:47:32;33.35;;;18.17;;
49614;SDS011;35517;45.272;9.984;2023-03-01T07:49:59;40.88;;;20.42;;
49614;SDS011;35517;45.272;9.984;2023-03-01T07:52:26;30.63;;;19.13;;
49614;SDS011;35517;45.272;9.984;2023-03-01T07:54:53;36.67;;;18.02;;
49614;SDS011;35517;45.272;9.984;2023-03-01T07:57:20;34.03;;;18.02;;
49614;SDS011;35517;45.272;9.984;2023-03-01T07:59:46;34.72;;;20.30;;
49614;SDS011;35517;45.272;9.984;2023-03-01T08:02:13;56.83;;;27.98;;
49614;SDS011;35517;45.272;9.984;2023-03-01T08:04:41;177.40;;;74.13;;
49614;SDS011;35517;45.272;9.984;2023-03-01T08:07:07;142.13;;;60.63;;
49614;SDS011;35517;45.272;9.984;2023-03-01T08:09:35;44.13;;;23.40;;
49614;SDS011;35517;45.272;9.984;2023-03-01T08:12:05;42.65;;;20.45;;
49614;SDS011;35517;45.272;9.984;2023-03-01T08:14:32;42.38;;;20.83;;
49614;SDS011;35517;45.272;9.984;2023-03-01T08:16:58;33.78;;;18.42;;
49614;SDS011;35517;45.272;9.984;2023-03-01T08:19:25;27.52;;;15.80;;
49614;SDS011;35517;45.272;9.984;2023-03-01T08:21:53;23.83;;;13.70;;
49614;SDS011;35517;45.272;9.984;2023-03-01T08:24:20;33.13;;;16.55;;
49614;SDS011;35517;45.272;9.984;2023-03-01T08:26:46;27.10;;;16.33;;
49614;SDS011;35517;45.272;9.984;2023-03-01T08:29:13;31.17;;;14.90;;
49614;SDS011;35517;45.272;9.984;2023-03-01T08:31:40;36.22;;;17.48;;
49614;SDS011;35517;45.272;9.984;2023-03-01T08:34:07;29.00;;;15.90;;
49614;SDS011;35517;45.272;9.984;2023-03-01T08:36:39;27.50;;;12.93;;
49614;SDS011;35517;45.272;9.984;2023-03-01T08:39:06;24.75;;;14.68;;
49614;SDS011;35517;45.272;9.984;2023-03-01T08:41:33;22.55;;;14.10;;
49614;SDS011;35517;45.272;9.984;2023-03-01T08:43:59;25.67;;;13.43;;
49614;SDS011;35517;45.272;9.984;2023-03-01T08:46:26;27.13;;;15.10;;
49614;SDS011;35517;45.272;9.984;2023-03-01T08:48:53;23.27;;;13.45;;
49614;SDS011;35517;45.272;9.984;2023-03-01T08:51:20;24.85;;;13.90;;
49614;SDS011;35517;45.272;9.984;2023-03-01T08:53:47;29.05;;;13.18;;
49614;SDS011;35517;45.272;9.984;2023-03-01T08:56:14;26.50;;;14.65;;
49614;SDS011;35517;45.272;9.984;2023-03-01T08:58:45;27.65;;;12.80;;
49614;SDS011;35517;45.272;9.984;2023-03-01T09:01:13;21.13;;;10.95;;
49614;SDS011;35517;45.272;9.984;2023-03-01T09:03:40;32.50;;;14.27;;
49614;SDS011;35517;45.272;9.984;2023-03-01T09:06:07;19.38;;;12.00;;
49614;SDS011;35517;45.272;9.984;2023-03-01T09:08:38;21.10;;;12.02;;
49614;SDS011;35517;45.272;9.984;2023-03-01T09:11:06;21.77;;;13.23;;
49614;SDS011;35517;45.272;9.984;2023-03-01T09:13:32;20.55;;;11.82;;
49614;SDS011;35517;45.272;9.984;2023-03-01T09:16:03;23.60;;;13.35;;
49614;SDS011;35517;45.272;9.984;2023-03-01T09:18:30;20.50;;;13.50;;
49614;SDS011;35517;45.272;9.984;2023-03-01T09:21:04;28.73;;;12.50;;
49614;SDS011;35517;45.272;9.984;2023-03-01T09:23:33;23.73;;;11.75;;
49614;SDS011;35517;45.272;9.984;2023-03-01T09:26:02;26.88;;;13.18;;
49614;SDS011;35517;45.272;9.984;2023-03-01T09:28:29;28.05;;;12.65;;
49614;SDS011;35517;45.272;9.984;2023-03-01T09:30:59;25.95;;;11.77;;
49614;SDS011;35517;45.272;9.984;2023-03-01T09:33:26;22.38;;;11.65;;
49614;SDS011;35517;45.272;9.984;2023-03-01T09:35:59;32.55;;;12.70;;
49614;SDS011;35517;45.272;9.984;2023-03-01T09:38:26;25.65;;;13.38;;
49614;SDS011;35517;45.272;9.984;2023-03-01T09:40:53;18.02;;;11.88;;
49614;SDS011;35517;45.272;9.984;2023-03-01T09:46:05;20.58;;;11.30;;
49614;SDS011;35517;45.272;9.984;2023-03-01T09:48:55;23.58;;;11.82;;
49614;SDS011;35517;45.272;9.984;2023-03-01T09:51:29;29.55;;;11.32;;
49614;SDS011;35517;45.272;9.984;2023-03-01T09:53:56;18.45;;;10.75;;
49614;SDS011;35517;45.272;9.984;2023-03-01T10:04:23;24.15;;;13.38;;
49614;SDS011;35517;45.272;9.984;2023-03-01T10:07:00;15.18;;;10.23;;
49614;SDS011;35517;45.272;9.984;2023-03-01T10:09:29;24.55;;;11.70;;
49614;SDS011;35517;45.272;9.984;2023-03-01T10:11:58;29.83;;;12.05;;
49614;SDS011;35517;45.272;9.984;2023-03-01T10:14:33;21.92;;;12.05;;
49614;SDS011;35517;45.272;9.984;2023-03-01T10:17:02;16.40;;;10.35;;
49614;SDS011;35517;45.272;9.984;2023-03-01T10:22:03;25.65;;;12.63;;
49614;SDS011;35517;45.272;9.984;2023-03-01T10:24:32;19.08;;;12.02;;
49614;SDS011;35517;45.272;9.984;2023-03-01T10:27:46;43.35;;;13.13;;
49614;SDS011;35517;45.272;9.984;2023-03-01T10:32:36;24.67;;;13.23;;
49614;SDS011;35517;45.272;9.984;2023-03-01T10:35:20;25.08;;;14.05;;
49614;SDS011;35517;45.272;9.984;2023-03-01T10:40:27;31.30;;;14.32;;
49614;SDS011;35517;45.272;9.984;2023-03-01T10:42:54;20.83;;;12.18;;
49614;SDS011;35517;45.272;9.984;2023-03-01T10:50:34;21.38;;;12.52;;
49614;SDS011;35517;45.272;9.984;2023-03-01T10:53:03;32.08;;;12.70;;
49614;SDS011;35517;45.272;9.984;2023-03-01T10:55:34;21.67;;;12.25;;
49614;SDS011;35517;45.272;9.984;2023-03-01T10:58:11;19.27;;;11.40;;
49614;SDS011;35517;45.272;9.984;2023-03-01T11:01:01;19.50;;;11.95;;
49614;SDS011;35517;45.272;9.984;2023-03-01T11:06:05;27.95;;;12.45;;
49614;SDS011;35517;45.272;9.984;2023-03-01T11:08:39;20.45;;;13.00;;
49614;SDS011;35517;45.272;9.984;2023-03-01T11:11:13;24.60;;;15.48;;
49614;SDS011;35517;45.272;9.984;2023-03-01T11:13:54;20.75;;;11.52;;
49614;SDS011;35517;45.272;9.984;2023-03-01T11:18:58;19.90;;;12.88;;
49614;SDS011;35517;45.272;9.984;2023-03-01T11:21:25;24.27;;;14.48;;
49614;SDS011;35517;45.272;9.984;2023-03-01T11:23:53;21.88;;;13.65;;
49614;SDS011;35517;45.272;9.984;2023-03-01T11:26:20;20.30;;;12.80;;
49614;SDS011;35517;45.272;9.984;2023-03-01T11:28:48;20.23;;;12.52;;
49614;SDS011;35517;45.272;9.984;2023-03-01T11:31:16;18.35;;;11.55;;
49614;SDS011;35517;45.272;9.984;2023-03-01T11:33:46;20.05;;;12.15;;
49614;SDS011;35517;45.272;9.984;2023-03-01T11:38:49;20.83;;;12.20;;
49614;SDS011;35517;45.272;9.984;2023-03-01T11:41:17;23.10;;;12.95;;
49614;SDS011;35517;45.272;9.984;2023-03-01T11:54:06;23.02;;;11.77;;
49614;SDS011;35517;45.272;9.984;2023-03-01T11:59:05;19.15;;;11.27;;
49614;SDS011;35517;45.272;9.984;2023-03-01T12:06:42;23.75;;;13.63;;
49614;SDS011;35517;45.272;9.984;2023-03-01T12:09:14;19.25;;;11.50;;
49614;SDS011;35517;45.272;9.984;2023-03-01T12:19:37;17.38;;;12.25;;
49614;SDS011;35517;45.272;9.984;2023-03-01T12:24:45;31.13;;;12.63;;
49614;SDS011;35517;45.272;9.984;2023-03-01T12:27:30;25.60;;;13.07;;
49614;SDS011;35517;45.272;9.984;2023-03-01T12:30:14;37.80;;;15.23;;
49614;SDS011;35517;45.272;9.984;2023-03-01T12:35:53;19.02;;;11.93;;
49614;SDS011;35517;45.272;9.984;2023-03-01T12:38:36;22.45;;;11.70;;
49614;SDS011;35517;45.272;9.984;2023-03-01T12:41:50;24.30;;;13.35;;
49614;SDS011;35517;45.272;9.984;2023-03-01T12:44:04;31.25;;;13.63;;
49614;SDS011;35517;45.272;9.984;2023-03-01T12:49:52;35.25;;;15.00;;
49614;SDS011;35517;45.272;9.984;2023-03-01T12:52:14;20.38;;;12.07;;
49614;SDS011;35517;45.272;9.984;2023-03-01T12:54:43;56.80;;;15.05;;
49614;SDS011;35517;45.272;9.984;2023-03-01T12:59:51;28.27;;;14.10;;
49614;SDS011;35517;45.272;9.984;2023-03-01T13:02:30;20.90;;;13.43;;
49614;SDS011;35517;45.272;9.984;2023-03-01T13:07:28;23.00;;;13.40;;
49614;SDS011;35517;45.272;9.984;2023-03-01T13:12:42;21.25;;;13.10;;
49614;SDS011;35517;45.272;9.984;2023-03-01T13:18:01;29.25;;;17.83;;
49614;SDS011;35517;45.272;9.984;2023-03-01T13:20:33;23.63;;;13.63;;
49614;SDS011;35517;45.272;9.984;2023-03-01T13:23:05;18.95;;;12.68;;
49614;SDS011;35517;45.272;9.984;2023-03-01T13:25:32;24.65;;;12.80;;
49614;SDS011;35517;45.272;9.984;2023-03-01T13:30:52;22.02;;;13.45;;
49614;SDS011;35517;45.272;9.984;2023-03-01T13:35:58;24.65;;;14.13;;
49614;SDS011;35517;45.272;9.984;2023-03-01T13:38:38;26.65;;;14.55;;
49614;SDS011;35517;45.272;9.984;2023-03-01T13:41:06;30.65;;;15.48;;
49614;SDS011;35517;45.272;9.984;2023-03-01T13:43:37;26.02;;;15.05;;
49614;SDS011;35517;45.272;9.984;2023-03-01T13:46:08;19.10;;;13.32;;
49614;SDS011;35517;45.272;9.984;2023-03-01T13:48:36;33.03;;;16.17;;
49614;SDS011;35517;45.272;9.984;2023-03-01T13:51:04;24.75;;;15.70;;
49614;SDS011;35517;45.272;9.984;2023-03-01T13:53:33;27.20;;;14.88;;
49614;SDS011;35517;45.272;9.984;2023-03-01T13:56:23;25.20;;;15.02;;
49614;SDS011;35517;45.272;9.984;2023-03-01T14:01:30;35.05;;;16.55;;
49614;SDS011;35517;45.272;9.984;2023-03-01T14:03:58;31.15;;;14.70;;
49614;SDS011;35517;45.272;9.984;2023-03-01T14:06:26;27.05;;;16.15;;
49614;SDS011;35517;45.272;9.984;2023-03-01T14:09:27;28.38;;;16.55;;
49614;SDS011;35517;45.272;9.984;2023-03-01T14:14:33;25.08;;;13.75;;
49614;SDS011;35517;45.272;9.984;2023-03-01T14:19:30;22.27;;;13.80;;
49614;SDS011;35517;45.272;9.984;2023-03-01T14:25:03;31.15;;;14.57;;
49614;SDS011;35517;45.272;9.984;2023-03-01T14:27:38;25.25;;;14.02;;
49614;SDS011;35517;45.272;9.984;2023-03-01T14:33:17;21.35;;;13.75;;
49614;SDS011;35517;45.272;9.984;2023-03-01T14:35:52;28.65;;;13.45;;
49614;SDS011;35517;45.272;9.984;2023-03-01T14:38:20;22.33;;;13.90;;
49614;SDS011;35517;45.272;9.984;2023-03-01T14:40:46;27.52;;;14.23;;
49614;SDS011;35517;45.272;9.984;2023-03-01T14:43:16;31.52;;;14.80;;
49614;SDS011;35517;45.272;9.984;2023-03-01T14:45:48;22.75;;;12.63;;
49614;SDS011;35517;45.272;9.984;2023-03-01T14:48:15;20.90;;;12.90;;
49614;SDS011;35517;45.272;9.984;2023-03-01T14:50:42;21.45;;;13.02;;
49614;SDS011;35517;45.272;9.984;2023-03-01T14:53:20;25.35;;;13.75;;
49614;SDS011;35517;45.272;9.984;2023-03-01T14:56:33;24.45;;;14.07;;
49614;SDS011;35517;45.272;9.984;2023-03-01T14:58:34;23.63;;;13.50;;
49614;SDS011;35517;45.272;9.984;2023-03-01T15:01:02;23.83;;;14.35;;
49614;SDS011;35517;45.272;9.984;2023-03-01T15:03:48;23.13;;;13.48;;
49614;SDS011;35517;45.272;9.984;2023-03-01T15:06:18;22.92;;;12.88;;
49614;SDS011;35517;45.272;9.984;2023-03-01T15:08:47;26.92;;;13.57;;
49614;SDS011;35517;45.272;9.984;2023-03-01T15:13:40;19.70;;;13.35;;
49614;SDS011;35517;45.272;9.984;2023-03-01T15:16:11;25.92;;;15.77;;
49614;SDS011;35517;45.272;9.984;2023-03-01T15:18:49;23.38;;;15.10;;
49614;SDS011;35517;45.272;9.984;2023-03-01T15:21:23;26.35;;;16.83;;
49614;SDS011;35517;45.272;9.984;2023-03-01T15:23:51;22.52;;;14.30;;
49614;SDS011;35517;45.272;9.984;2023-03-01T15:26:21;25.30;;;15.80;;
49614;SDS011;35517;45.272;9.984;2023-03-01T15:28:49;29.00;;;17.80;;
49614;SDS011;35517;45.272;9.984;2023-03-01T15:31:20;30.75;;;16.00;;
49614;SDS011;35517;45.272;9.984;2023-03-01T15:33:47;30.77;;;15.80;;
49614;SDS011;35517;45.272;9.984;2023-03-01T15:39:00;28.63;;;15.85;;
49614;SDS011;35517;45.272;9.984;2023-03-01T15:41:28;25.63;;;15.10;;
49614;SDS011;35517;45.272;9.984;2023-03-01T15:43:59;22.23;;;14.00;;
49614;SDS011;35517;45.272;9.984;2023-03-01T15:46:27;29.23;;;15.50;;
49614;SDS011;35517;45.272;9.984;2023-03-01T15:48:56;23.23;;;13.63;;
49614;SDS011;35517;45.272;9.984;2023-03-01T15:51:33;26.20;;;15.55;;
49614;SDS011;35517;45.272;9.984;2023-03-01T15:54:02;23.98;;;14.60;;
49614;SDS011;35517;45.272;9.984;2023-03-01T15:56:28;23.95;;;14.18;;
49614;SDS011;35517;45.272;9.984;2023-03-01T15:58:59;26.63;;;16.98;;
49614;SDS011;35517;45.272;9.984;2023-03-01T16:01:26;25.95;;;15.32;;
49614;SDS011;35517;45.272;9.984;2023-03-01T16:03:53;24.77;;;15.40;;
49614;SDS011;35517;45.272;9.984;2023-03-01T16:06:19;25.23;;;15.23;;
49614;SDS011;35517;45.272;9.984;2023-03-01T16:08:46;25.17;;;15.05;;
49614;SDS011;35517;45.272;9.984;2023-03-01T16:11:16;22.92;;;15.60;;
49614;SDS011;35517;45.272;9.984;2023-03-01T16:13:44;23.67;;;14.95;;
49614;SDS011;35517;45.272;9.984;2023-03-01T16:16:11;26.75;;;14.15;;
49614;SDS011;35517;45.272;9.984;2023-03-01T16:18:41;24.92;;;14.02;;
49614;SDS011;35517;45.272;9.984;2023-03-01T16:21:10;32.83;;;17.20;;
49614;SDS011;35517;45.272;9.984;2023-03-01T16:23:37;25.85;;;15.55;;